sensor_id;sensor_type;location;lat;lon;timestamp;P1;durP1;ratioP1;P2;durP2;ratioP2
10643;SDS011;5370;50.132;8.626;2023-10-19T00:00:18;13.63;;;10.87;;
10643;SDS011;5370;50.132;8.626;2023-10-19T00:02:45;13.37;;;9.67;;
10643;SDS011;5370;50.132;8.626;2023-10-19T00:05:13;13.23;;;10.83;;
10643;SDS011;5370;50.132;8.626;2023-10-19T00:07:40;14.20;;;11.03;;
10643;SDS011;5370;50.132;8.626;2023-10-19T00:10:06;16.63;;;11.53;;
10643;SDS011;5370;50.132;8.626;2023-10-19T00:12:32;14.67;;;11.17;;
10643;SDS011;5370;50.132;8.626;2023-10-19T00:14:58;12.10;;;10.43;;
10643;SDS011;5370;50.132;8.626;2023-10-19T00:17:24;15.30;;;11.63;;
10643;SDS011;5370;50.132;8.626;2023-10-19T00:19:52;16.57;;;12.30;;
10643;SDS011;5370;50.132;8.626;2023-10-19T00:22:36;14.57;;;11.07;;
10643;SDS011;5370;50.132;8.626;2023-10-19T00:25:02;15.20;;;11.33;;
10643;SDS011;5370;50.132;8.626;2023-10-19T00:27:28;18.13;;;11.90;;
10643;SDS011;5370;50.132;8.626;2023-10-19T00:29:54;17.30;;;11.97;;
10643;SDS011;5370;50.132;8.626;2023-10-19T00:32:30;14.43;;;11.87;;
10643;SDS011;5370;50.132;8.626;2023-10-19T00:34:56;13.47;;;11.40;;
10643;SDS011;5370;50.132;8.626;2023-10-19T00:37:21;15.03;;;11.53;;
10643;SDS011;5370;50.132;8.626;2023-10-19T00:39:57;16.47;;;12.20;;
10643;SDS011;5370;50.132;8.626;2023-10-19T00:42:40;16.93;;;12.10;;
10643;SDS011;5370;50.132;8.626;2023-10-19T00:45:11;15.93;;;11.23;;
10643;SDS011;5370;50.132;8.626;2023-10-19T00:47:38;15.40;;;12.07;;
10643;SDS011;5370;50.132;8.626;2023-10-19T00:50:07;14.13;;;10.93;;
10643;SDS011;5370;50.132;8.626;2023-10-19T00:52:42;14.10;;;12.40;;
10643;SDS011;5370;50.132;8.626;2023-10-19T00:55:15;14.87;;;12.30;;
10643;SDS011;5370;50.132;8.626;2023-10-19T00:57:41;17.13;;;12.57;;
10643;SDS011;5370;50.132;8.626;2023-10-19T01:00:13;15.87;;;12.23;;
10643;SDS011;5370;50.132;8.626;2023-10-19T01:02:56;16.40;;;12.60;;
10643;SDS011;5370;50.132;8.626;2023-10-19T01:05:25;16.13;;;12.90;;
10643;SDS011;5370;50.132;8.626;2023-10-19T01:08:00;14.10;;;11.50;;
10643;SDS011;5370;50.132;8.626;2023-10-19T01:10:28;16.60;;;13.60;;
10643;SDS011;5370;50.132;8.626;2023-10-19T01:12:56;17.67;;;13.27;;
10643;SDS011;5370;50.132;8.626;2023-10-19T01:15:24;14.77;;;13.03;;
10643;SDS011;5370;50.132;8.626;2023-10-19T01:17:52;16.17;;;13.60;;
10643;SDS011;5370;50.132;8.626;2023-10-19T01:20:23;19.03;;;13.40;;
10643;SDS011;5370;50.132;8.626;2023-10-19T01:22:56;16.80;;;13.10;;
10643;SDS011;5370;50.132;8.626;2023-10-19T01:25:53;17.97;;;14.00;;
10643;SDS011;5370;50.132;8.626;2023-10-19T01:28:20;17.20;;;13.63;;
10643;SDS011;5370;50.132;8.626;2023-10-19T01:33:45;16.73;;;13.20;;
10643;SDS011;5370;50.132;8.626;2023-10-19T01:36:11;17.00;;;13.43;;
10643;SDS011;5370;50.132;8.626;2023-10-19T01:38:57;16.70;;;12.83;;
10643;SDS011;5370;50.132;8.626;2023-10-19T01:41:26;16.33;;;12.90;;
10643;SDS011;5370;50.132;8.626;2023-10-19T01:43:53;14.33;;;12.57;;
10643;SDS011;5370;50.132;8.626;2023-10-19T01:46:20;16.27;;;12.67;;
10643;SDS011;5370;50.132;8.626;2023-10-19T01:48:56;18.77;;;13.03;;
10643;SDS011;5370;50.132;8.626;2023-10-19T01:51:23;16.07;;;13.43;;
10643;SDS011;5370;50.132;8.626;2023-10-19T01:53:50;16.93;;;12.90;;
10643;SDS011;5370;50.132;8.626;2023-10-19T01:56:16;15.00;;;13.17;;
10643;SDS011;5370;50.132;8.626;2023-10-19T01:58:43;16.63;;;13.30;;
10643;SDS011;5370;50.132;8.626;2023-10-19T02:01:11;16.07;;;12.87;;
10643;SDS011;5370;50.132;8.626;2023-10-19T02:03:38;19.70;;;13.50;;
10643;SDS011;5370;50.132;8.626;2023-10-19T02:06:07;15.57;;;12.60;;
10643;SDS011;5370;50.132;8.626;2023-10-19T02:08:55;17.23;;;13.43;;
10643;SDS011;5370;50.132;8.626;2023-10-19T02:11:25;13.90;;;12.03;;
10643;SDS011;5370;50.132;8.626;2023-10-19T02:13:53;18.10;;;13.90;;
10643;SDS011;5370;50.132;8.626;2023-10-19T02:16:20;18.00;;;12.97;;
10643;SDS011;5370;50.132;8.626;2023-10-19T02:18:54;22.20;;;14.27;;
10643;SDS011;5370;50.132;8.626;2023-10-19T02:21:20;17.67;;;13.17;;
10643;SDS011;5370;50.132;8.626;2023-10-19T02:23:54;16.20;;;12.67;;
10643;SDS011;5370;50.132;8.626;2023-10-19T02:26:20;14.93;;;13.33;;
10643;SDS011;5370;50.132;8.626;2023-10-19T02:28:50;14.70;;;12.80;;
10643;SDS011;5370;50.132;8.626;2023-10-19T02:31:16;17.23;;;13.13;;
10643;SDS011;5370;50.132;8.626;2023-10-19T02:33:50;16.00;;;13.50;;
10643;SDS011;5370;50.132;8.626;2023-10-19T02:36:26;15.37;;;12.97;;
10643;SDS011;5370;50.132;8.626;2023-10-19T02:38:57;15.23;;;12.67;;
10643;SDS011;5370;50.132;8.626;2023-10-19T02:41:25;16.17;;;13.17;;
10643;SDS011;5370;50.132;8.626;2023-10-19T02:43:52;17.43;;;12.73;;
10643;SDS011;5370;50.132;8.626;2023-10-19T02:46:49;14.63;;;11.97;;
10643;SDS011;5370;50.132;8.626;2023-10-19T02:49:24;15.70;;;13.63;;
10643;SDS011;5370;50.132;8.626;2023-10-19T02:51:54;15.90;;;12.80;;
10643;SDS011;5370;50.132;8.626;2023-10-19T02:54:21;18.33;;;13.43;;
10643;SDS011;5370;50.132;8.626;2023-10-19T02:56:49;20.57;;;14.30;;
10643;SDS011;5370;50.132;8.626;2023-10-19T02:59:22;17.77;;;12.80;;
10643;SDS011;5370;50.132;8.626;2023-10-19T03:01:49;17.13;;;13.27;;
10643;SDS011;5370;50.132;8.626;2023-10-19T03:04:16;17.33;;;13.20;;
10643;SDS011;5370;50.132;8.626;2023-10-19T03:06:42;15.97;;;12.33;;
10643;SDS011;5370;50.132;8.626;2023-10-19T03:09:08;17.93;;;13.37;;
10643;SDS011;5370;50.132;8.626;2023-10-19T03:11:52;17.83;;;14.13;;
10643;SDS011;5370;50.132;8.626;2023-10-19T03:14:20;17.50;;;14.57;;
10643;SDS011;5370;50.132;8.626;2023-10-19T03:16:50;17.70;;;14.50;;
10643;SDS011;5370;50.132;8.626;2023-10-19T03:19:15;16.97;;;13.73;;
10643;SDS011;5370;50.132;8.626;2023-10-19T03:21:41;19.70;;;14.07;;
10643;SDS011;5370;50.132;8.626;2023-10-19T03:24:11;19.33;;;13.37;;
10643;SDS011;5370;50.132;8.626;2023-10-19T03:27:09;17.43;;;14.33;;
10643;SDS011;5370;50.132;8.626;2023-10-19T03:29:48;17.67;;;14.17;;
10643;SDS011;5370;50.132;8.626;2023-10-19T03:32:21;19.17;;;14.17;;
10643;SDS011;5370;50.132;8.626;2023-10-19T03:34:51;20.33;;;15.27;;
10643;SDS011;5370;50.132;8.626;2023-10-19T03:37:23;18.93;;;14.57;;
10643;SDS011;5370;50.132;8.626;2023-10-19T03:39:50;19.27;;;14.53;;
10643;SDS011;5370;50.132;8.626;2023-10-19T03:42:16;18.73;;;13.93;;
10643;SDS011;5370;50.132;8.626;2023-10-19T03:44:42;19.33;;;14.60;;
10643;SDS011;5370;50.132;8.626;2023-10-19T03:47:14;18.83;;;14.80;;
10643;SDS011;5370;50.132;8.626;2023-10-19T03:49:44;20.07;;;15.00;;
10643;SDS011;5370;50.132;8.626;2023-10-19T03:52:11;21.23;;;15.93;;
10643;SDS011;5370;50.132;8.626;2023-10-19T03:54:37;19.70;;;14.63;;
10643;SDS011;5370;50.132;8.626;2023-10-19T03:57:12;18.97;;;15.50;;
10643;SDS011;5370;50.132;8.626;2023-10-19T03:59:48;19.50;;;14.93;;
10643;SDS011;5370;50.132;8.626;2023-10-19T04:02:26;22.23;;;15.70;;
10643;SDS011;5370;50.132;8.626;2023-10-19T04:05:00;20.40;;;15.50;;
10643;SDS011;5370;50.132;8.626;2023-10-19T04:07:26;21.07;;;15.37;;
10643;SDS011;5370;50.132;8.626;2023-10-19T04:09:56;22.03;;;15.60;;
10643;SDS011;5370;50.132;8.626;2023-10-19T04:12:34;24.70;;;16.47;;
10643;SDS011;5370;50.132;8.626;2023-10-19T04:15:02;20.90;;;16.07;;
10643;SDS011;5370;50.132;8.626;2023-10-19T04:17:38;21.50;;;16.33;;
10643;SDS011;5370;50.132;8.626;2023-10-19T04:20:05;23.67;;;15.53;;
10643;SDS011;5370;50.132;8.626;2023-10-19T04:22:51;22.37;;;16.67;;
10643;SDS011;5370;50.132;8.626;2023-10-19T04:25:17;21.70;;;15.83;;
10643;SDS011;5370;50.132;8.626;2023-10-19T04:27:44;20.77;;;15.17;;
10643;SDS011;5370;50.132;8.626;2023-10-19T04:30:13;19.77;;;15.50;;
10643;SDS011;5370;50.132;8.626;2023-10-19T04:32:50;18.90;;;15.47;;
10643;SDS011;5370;50.132;8.626;2023-10-19T04:35:16;25.80;;;17.90;;
10643;SDS011;5370;50.132;8.626;2023-10-19T04:37:48;25.27;;;16.80;;
10643;SDS011;5370;50.132;8.626;2023-10-19T04:40:15;22.60;;;17.20;;
10643;SDS011;5370;50.132;8.626;2023-10-19T04:42:41;24.97;;;16.00;;
10643;SDS011;5370;50.132;8.626;2023-10-19T04:45:07;22.73;;;17.10;;
10643;SDS011;5370;50.132;8.626;2023-10-19T04:47:33;24.53;;;16.43;;
10643;SDS011;5370;50.132;8.626;2023-10-19T04:50:01;20.47;;;16.40;;
10643;SDS011;5370;50.132;8.626;2023-10-19T04:52:28;21.83;;;16.47;;
10643;SDS011;5370;50.132;8.626;2023-10-19T04:54:53;24.57;;;16.50;;
10643;SDS011;5370;50.132;8.626;2023-10-19T04:57:19;20.53;;;15.57;;
10643;SDS011;5370;50.132;8.626;2023-10-19T04:59:45;25.10;;;16.80;;
10643;SDS011;5370;50.132;8.626;2023-10-19T05:02:11;25.53;;;17.03;;
10643;SDS011;5370;50.132;8.626;2023-10-19T05:04:37;24.17;;;16.27;;
10643;SDS011;5370;50.132;8.626;2023-10-19T05:07:03;25.90;;;16.67;;
10643;SDS011;5370;50.132;8.626;2023-10-19T05:09:29;26.77;;;16.73;;
10643;SDS011;5370;50.132;8.626;2023-10-19T05:11:55;25.00;;;17.20;;
10643;SDS011;5370;50.132;8.626;2023-10-19T05:14:21;32.47;;;17.73;;
10643;SDS011;5370;50.132;8.626;2023-10-19T05:16:47;31.53;;;17.53;;
10643;SDS011;5370;50.132;8.626;2023-10-19T05:19:13;24.90;;;18.30;;
10643;SDS011;5370;50.132;8.626;2023-10-19T05:21:39;28.67;;;19.00;;
10643;SDS011;5370;50.132;8.626;2023-10-19T05:24:04;27.73;;;18.20;;
10643;SDS011;5370;50.132;8.626;2023-10-19T05:26:33;26.00;;;17.63;;
10643;SDS011;5370;50.132;8.626;2023-10-19T05:28:58;25.90;;;18.90;;
10643;SDS011;5370;50.132;8.626;2023-10-19T05:31:24;28.53;;;18.17;;
10643;SDS011;5370;50.132;8.626;2023-10-19T05:33:49;29.17;;;18.87;;
10643;SDS011;5370;50.132;8.626;2023-10-19T05:36:15;25.23;;;18.27;;
10643;SDS011;5370;50.132;8.626;2023-10-19T05:38:42;31.53;;;18.20;;
10643;SDS011;5370;50.132;8.626;2023-10-19T05:41:08;29.03;;;19.33;;
10643;SDS011;5370;50.132;8.626;2023-10-19T05:43:35;34.37;;;20.17;;
10643;SDS011;5370;50.132;8.626;2023-10-19T05:46:01;30.30;;;19.67;;
10643;SDS011;5370;50.132;8.626;2023-10-19T05:48:27;33.83;;;19.17;;
10643;SDS011;5370;50.132;8.626;2023-10-19T05:50:53;29.10;;;18.37;;
10643;SDS011;5370;50.132;8.626;2023-10-19T05:53:19;29.50;;;19.30;;
10643;SDS011;5370;50.132;8.626;2023-10-19T05:55:47;23.83;;;17.37;;
10643;SDS011;5370;50.132;8.626;2023-10-19T05:58:14;29.53;;;18.23;;
10643;SDS011;5370;50.132;8.626;2023-10-19T06:00:40;26.43;;;17.73;;
10643;SDS011;5370;50.132;8.626;2023-10-19T06:03:05;24.43;;;18.03;;
10643;SDS011;5370;50.132;8.626;2023-10-19T06:05:31;27.60;;;18.87;;
10643;SDS011;5370;50.132;8.626;2023-10-19T06:07:56;31.97;;;18.27;;
10643;SDS011;5370;50.132;8.626;2023-10-19T06:10:24;28.47;;;18.10;;
10643;SDS011;5370;50.132;8.626;2023-10-19T06:12:51;33.87;;;18.90;;
10643;SDS011;5370;50.132;8.626;2023-10-19T06:15:18;30.83;;;19.60;;
10643;SDS011;5370;50.132;8.626;2023-10-19T06:17:46;32.47;;;19.87;;
10643;SDS011;5370;50.132;8.626;2023-10-19T06:20:13;34.23;;;20.07;;
10643;SDS011;5370;50.132;8.626;2023-10-19T06:22:48;31.47;;;19.17;;
10643;SDS011;5370;50.132;8.626;2023-10-19T06:25:18;28.67;;;18.87;;
10643;SDS011;5370;50.132;8.626;2023-10-19T06:27:47;33.73;;;19.97;;
10643;SDS011;5370;50.132;8.626;2023-10-19T06:30:14;44.63;;;21.93;;
10643;SDS011;5370;50.132;8.626;2023-10-19T06:33:01;35.30;;;20.13;;
10643;SDS011;5370;50.132;8.626;2023-10-19T06:35:28;31.93;;;19.23;;
10643;SDS011;5370;50.132;8.626;2023-10-19T06:37:56;37.20;;;20.90;;
10643;SDS011;5370;50.132;8.626;2023-10-19T06:40:23;37.03;;;21.43;;
10643;SDS011;5370;50.132;8.626;2023-10-19T06:42:51;37.77;;;20.70;;
10643;SDS011;5370;50.132;8.626;2023-10-19T06:45:20;37.83;;;21.77;;
10643;SDS011;5370;50.132;8.626;2023-10-19T06:47:47;37.10;;;21.47;;
10643;SDS011;5370;50.132;8.626;2023-10-19T06:50:15;42.37;;;22.80;;
10643;SDS011;5370;50.132;8.626;2023-10-19T06:52:42;48.53;;;21.53;;
10643;SDS011;5370;50.132;8.626;2023-10-19T06:55:10;43.50;;;22.97;;
10643;SDS011;5370;50.132;8.626;2023-10-19T06:57:40;37.33;;;22.83;;
10643;SDS011;5370;50.132;8.626;2023-10-19T07:00:08;39.40;;;21.93;;
10643;SDS011;5370;50.132;8.626;2023-10-19T07:02:44;47.40;;;21.97;;
10643;SDS011;5370;50.132;8.626;2023-10-19T07:05:11;46.80;;;23.50;;
10643;SDS011;5370;50.132;8.626;2023-10-19T07:07:39;43.17;;;23.83;;
10643;SDS011;5370;50.132;8.626;2023-10-19T07:10:09;56.23;;;23.73;;
10643;SDS011;5370;50.132;8.626;2023-10-19T07:12:37;60.07;;;25.10;;
10643;SDS011;5370;50.132;8.626;2023-10-19T07:15:07;51.00;;;24.47;;
10643;SDS011;5370;50.132;8.626;2023-10-19T07:17:38;74.60;;;27.73;;
10643;SDS011;5370;50.132;8.626;2023-10-19T07:20:05;82.93;;;31.63;;
10643;SDS011;5370;50.132;8.626;2023-10-19T07:22:32;64.63;;;29.40;;
10643;SDS011;5370;50.132;8.626;2023-10-19T07:24:58;81.30;;;29.07;;
10643;SDS011;5370;50.132;8.626;2023-10-19T07:27:23;90.10;;;29.90;;
10643;SDS011;5370;50.132;8.626;2023-10-19T07:29:52;79.53;;;29.90;;
10643;SDS011;5370;50.132;8.626;2023-10-19T07:32:18;85.70;;;28.87;;
10643;SDS011;5370;50.132;8.626;2023-10-19T07:34:43;98.93;;;31.70;;
10643;SDS011;5370;50.132;8.626;2023-10-19T07:37:09;85.53;;;29.87;;
10643;SDS011;5370;50.132;8.626;2023-10-19T07:39:40;101.80;;;31.83;;
10643;SDS011;5370;50.132;8.626;2023-10-19T07:42:17;125.77;;;32.70;;
10643;SDS011;5370;50.132;8.626;2023-10-19T07:44:42;85.40;;;30.67;;
10643;SDS011;5370;50.132;8.626;2023-10-19T07:47:09;78.20;;;33.20;;
10643;SDS011;5370;50.132;8.626;2023-10-19T07:49:37;100.07;;;32.00;;
10643;SDS011;5370;50.132;8.626;2023-10-19T07:52:05;76.40;;;30.30;;
10643;SDS011;5370;50.132;8.626;2023-10-19T07:54:32;96.37;;;32.50;;
10643;SDS011;5370;50.132;8.626;2023-10-19T07:57:01;79.90;;;31.63;;
10643;SDS011;5370;50.132;8.626;2023-10-19T07:59:37;89.03;;;32.73;;
10643;SDS011;5370;50.132;8.626;2023-10-19T08:02:03;80.93;;;32.10;;
10643;SDS011;5370;50.132;8.626;2023-10-19T08:04:29;89.30;;;32.30;;
10643;SDS011;5370;50.132;8.626;2023-10-19T08:06:55;105.87;;;34.40;;
10643;SDS011;5370;50.132;8.626;2023-10-19T08:09:24;81.67;;;33.07;;
10643;SDS011;5370;50.132;8.626;2023-10-19T08:11:51;85.20;;;33.73;;
10643;SDS011;5370;50.132;8.626;2023-10-19T08:14:21;83.87;;;34.37;;
10643;SDS011;5370;50.132;8.626;2023-10-19T08:16:49;100.10;;;33.13;;
10643;SDS011;5370;50.132;8.626;2023-10-19T08:19:15;111.37;;;38.63;;
10643;SDS011;5370;50.132;8.626;2023-10-19T08:21:41;83.67;;;34.17;;
10643;SDS011;5370;50.132;8.626;2023-10-19T08:24:07;101.10;;;35.87;;
10643;SDS011;5370;50.132;8.626;2023-10-19T08:26:38;104.87;;;34.37;;
10643;SDS011;5370;50.132;8.626;2023-10-19T08:29:04;97.73;;;34.03;;
10643;SDS011;5370;50.132;8.626;2023-10-19T08:31:37;91.20;;;33.37;;
10643;SDS011;5370;50.132;8.626;2023-10-19T08:34:07;111.80;;;36.00;;
10643;SDS011;5370;50.132;8.626;2023-10-19T08:36:34;102.17;;;34.73;;
10643;SDS011;5370;50.132;8.626;2023-10-19T08:39:02;97.07;;;35.70;;
10643;SDS011;5370;50.132;8.626;2023-10-19T08:41:32;88.27;;;33.77;;
10643;SDS011;5370;50.132;8.626;2023-10-19T08:43:59;88.77;;;33.93;;
10643;SDS011;5370;50.132;8.626;2023-10-19T08:46:41;106.47;;;35.67;;
10643;SDS011;5370;50.132;8.626;2023-10-19T08:49:14;90.43;;;34.87;;
10643;SDS011;5370;50.132;8.626;2023-10-19T08:51:43;84.57;;;35.67;;
10643;SDS011;5370;50.132;8.626;2023-10-19T08:54:10;97.07;;;35.33;;
10643;SDS011;5370;50.132;8.626;2023-10-19T08:56:37;101.30;;;37.03;;
10643;SDS011;5370;50.132;8.626;2023-10-19T08:59:04;87.73;;;35.67;;
10643;SDS011;5370;50.132;8.626;2023-10-19T09:01:31;99.63;;;35.77;;
10643;SDS011;5370;50.132;8.626;2023-10-19T09:03:57;98.53;;;37.27;;
10643;SDS011;5370;50.132;8.626;2023-10-19T09:06:23;124.00;;;35.50;;
10643;SDS011;5370;50.132;8.626;2023-10-19T09:08:49;106.47;;;34.03;;
10643;SDS011;5370;50.132;8.626;2023-10-19T09:11:14;106.23;;;36.63;;
10643;SDS011;5370;50.132;8.626;2023-10-19T09:13:44;120.27;;;37.73;;
10643;SDS011;5370;50.132;8.626;2023-10-19T09:16:14;124.17;;;36.30;;
10643;SDS011;5370;50.132;8.626;2023-10-19T09:18:47;139.77;;;36.67;;
10643;SDS011;5370;50.132;8.626;2023-10-19T09:21:17;109.37;;;40.23;;
10643;SDS011;5370;50.132;8.626;2023-10-19T09:23:54;110.07;;;41.77;;
10643;SDS011;5370;50.132;8.626;2023-10-19T09:26:21;94.43;;;41.40;;
10643;SDS011;5370;50.132;8.626;2023-10-19T09:28:51;96.00;;;39.30;;
10643;SDS011;5370;50.132;8.626;2023-10-19T09:31:18;82.03;;;35.00;;
10643;SDS011;5370;50.132;8.626;2023-10-19T09:33:46;83.27;;;36.33;;
10643;SDS011;5370;50.132;8.626;2023-10-19T09:36:14;89.27;;;34.20;;
10643;SDS011;5370;50.132;8.626;2023-10-19T09:38:46;74.32;;;36.10;;
10643;SDS011;5370;50.132;8.626;2023-10-19T09:41:14;69.60;;;34.17;;
10643;SDS011;5370;50.132;8.626;2023-10-19T09:43:43;64.70;;;34.87;;
10643;SDS011;5370;50.132;8.626;2023-10-19T09:46:10;65.93;;;34.05;;
10643;SDS011;5370;50.132;8.626;2023-10-19T09:48:40;61.60;;;32.97;;
10643;SDS011;5370;50.132;8.626;2023-10-19T09:51:16;66.18;;;34.58;;
10643;SDS011;5370;50.132;8.626;2023-10-19T09:53:44;61.58;;;33.25;;
10643;SDS011;5370;50.132;8.626;2023-10-19T09:56:21;62.63;;;34.30;;
10643;SDS011;5370;50.132;8.626;2023-10-19T09:58:55;70.53;;;35.13;;
10643;SDS011;5370;50.132;8.626;2023-10-19T10:01:25;62.25;;;33.83;;
10643;SDS011;5370;50.132;8.626;2023-10-19T10:03:51;59.83;;;33.60;;
10643;SDS011;5370;50.132;8.626;2023-10-19T10:06:27;62.38;;;34.22;;
10643;SDS011;5370;50.132;8.626;2023-10-19T10:08:54;63.30;;;34.80;;
10643;SDS011;5370;50.132;8.626;2023-10-19T10:11:24;59.55;;;32.60;;
10643;SDS011;5370;50.132;8.626;2023-10-19T10:13:51;70.38;;;35.60;;
10643;SDS011;5370;50.132;8.626;2023-10-19T10:16:18;62.17;;;33.42;;
10643;SDS011;5370;50.132;8.626;2023-10-19T10:18:46;60.70;;;34.42;;
10643;SDS011;5370;50.132;8.626;2023-10-19T10:23:45;63.53;;;35.40;;
10643;SDS011;5370;50.132;8.626;2023-10-19T10:26:13;56.15;;;34.88;;
10643;SDS011;5370;50.132;8.626;2023-10-19T10:28:41;59.70;;;34.50;;
10643;SDS011;5370;50.132;8.626;2023-10-19T10:31:13;61.28;;;34.88;;
10643;SDS011;5370;50.132;8.626;2023-10-19T10:36:18;56.85;;;34.10;;
10643;SDS011;5370;50.132;8.626;2023-10-19T10:38:47;58.08;;;35.00;;
10643;SDS011;5370;50.132;8.626;2023-10-19T10:41:25;82.15;;;37.05;;
10643;SDS011;5370;50.132;8.626;2023-10-19T10:43:56;58.35;;;34.33;;
10643;SDS011;5370;50.132;8.626;2023-10-19T10:46:23;54.83;;;34.83;;
10643;SDS011;5370;50.132;8.626;2023-10-19T10:48:50;50.83;;;33.67;;
10643;SDS011;5370;50.132;8.626;2023-10-19T10:51:23;57.92;;;36.97;;
10643;SDS011;5370;50.132;8.626;2023-10-19T10:53:52;52.80;;;34.13;;
10643;SDS011;5370;50.132;8.626;2023-10-19T10:56:20;53.50;;;35.58;;
10643;SDS011;5370;50.132;8.626;2023-10-19T10:58:47;54.67;;;34.33;;
10643;SDS011;5370;50.132;8.626;2023-10-19T11:01:13;56.75;;;36.13;;
10643;SDS011;5370;50.132;8.626;2023-10-19T11:03:39;58.78;;;37.72;;
10643;SDS011;5370;50.132;8.626;2023-10-19T11:06:07;58.33;;;34.55;;
10643;SDS011;5370;50.132;8.626;2023-10-19T11:08:34;54.90;;;35.50;;
10643;SDS011;5370;50.132;8.626;2023-10-19T11:11:08;59.40;;;35.13;;
10643;SDS011;5370;50.132;8.626;2023-10-19T11:13:37;66.35;;;39.80;;
10643;SDS011;5370;50.132;8.626;2023-10-19T11:16:06;62.95;;;40.65;;
10643;SDS011;5370;50.132;8.626;2023-10-19T11:18:39;60.95;;;35.60;;
10643;SDS011;5370;50.132;8.626;2023-10-19T11:21:07;59.67;;;36.20;;
10643;SDS011;5370;50.132;8.626;2023-10-19T11:23:46;60.28;;;35.95;;
10643;SDS011;5370;50.132;8.626;2023-10-19T11:26:15;60.95;;;34.83;;
10643;SDS011;5370;50.132;8.626;2023-10-19T11:28:41;134.20;;;83.80;;
10643;SDS011;5370;50.132;8.626;2023-10-19T11:33:44;55.92;;;35.90;;
10643;SDS011;5370;50.132;8.626;2023-10-19T11:36:11;58.15;;;36.25;;
10643;SDS011;5370;50.132;8.626;2023-10-19T11:38:38;59.20;;;35.13;;
10643;SDS011;5370;50.132;8.626;2023-10-19T11:41:08;64.38;;;36.13;;
10643;SDS011;5370;50.132;8.626;2023-10-19T11:43:35;75.07;;;40.65;;
10643;SDS011;5370;50.132;8.626;2023-10-19T11:46:01;56.80;;;34.08;;
10643;SDS011;5370;50.132;8.626;2023-10-19T11:48:31;68.68;;;36.92;;
10643;SDS011;5370;50.132;8.626;2023-10-19T11:50:58;72.55;;;37.90;;
10643;SDS011;5370;50.132;8.626;2023-10-19T11:53:25;64.93;;;37.95;;
10643;SDS011;5370;50.132;8.626;2023-10-19T11:55:50;69.90;;;38.35;;
10643;SDS011;5370;50.132;8.626;2023-10-19T11:58:16;62.33;;;35.22;;
10643;SDS011;5370;50.132;8.626;2023-10-19T12:00:42;65.55;;;37.35;;
10643;SDS011;5370;50.132;8.626;2023-10-19T12:03:11;66.72;;;38.85;;
10643;SDS011;5370;50.132;8.626;2023-10-19T12:05:37;69.22;;;36.78;;
10643;SDS011;5370;50.132;8.626;2023-10-19T12:08:03;84.20;;;47.92;;
10643;SDS011;5370;50.132;8.626;2023-10-19T12:10:29;73.53;;;39.58;;
10643;SDS011;5370;50.132;8.626;2023-10-19T12:13:00;80.78;;;45.35;;
10643;SDS011;5370;50.132;8.626;2023-10-19T12:15:33;63.38;;;36.63;;
10643;SDS011;5370;50.132;8.626;2023-10-19T12:17:59;61.88;;;37.58;;
10643;SDS011;5370;50.132;8.626;2023-10-19T12:20:26;65.78;;;37.58;;
10643;SDS011;5370;50.132;8.626;2023-10-19T12:22:52;62.00;;;37.42;;
10643;SDS011;5370;50.132;8.626;2023-10-19T12:25:19;58.45;;;35.53;;
10643;SDS011;5370;50.132;8.626;2023-10-19T12:27:46;57.25;;;34.03;;
10643;SDS011;5370;50.132;8.626;2023-10-19T12:30:12;59.75;;;35.35;;
10643;SDS011;5370;50.132;8.626;2023-10-19T12:32:46;55.60;;;34.22;;
10643;SDS011;5370;50.132;8.626;2023-10-19T12:35:16;51.33;;;30.63;;
10643;SDS011;5370;50.132;8.626;2023-10-19T12:37:44;49.47;;;31.33;;
10643;SDS011;5370;50.132;8.626;2023-10-19T12:40:16;51.33;;;32.97;;
10643;SDS011;5370;50.132;8.626;2023-10-19T12:42:51;49.95;;;31.42;;
10643;SDS011;5370;50.132;8.626;2023-10-19T12:45:23;45.03;;;30.90;;
10643;SDS011;5370;50.132;8.626;2023-10-19T12:47:50;47.28;;;30.75;;
10643;SDS011;5370;50.132;8.626;2023-10-19T12:50:17;48.00;;;32.80;;
10643;SDS011;5370;50.132;8.626;2023-10-19T12:52:44;50.33;;;31.90;;
10643;SDS011;5370;50.132;8.626;2023-10-19T12:55:10;51.75;;;33.63;;
10643;SDS011;5370;50.132;8.626;2023-10-19T12:57:36;51.92;;;33.38;;
10643;SDS011;5370;50.132;8.626;2023-10-19T13:00:02;57.45;;;33.97;;
10643;SDS011;5370;50.132;8.626;2023-10-19T13:02:47;56.78;;;32.88;;
10643;SDS011;5370;50.132;8.626;2023-10-19T13:05:13;64.65;;;37.80;;
10643;SDS011;5370;50.132;8.626;2023-10-19T13:07:43;64.72;;;36.75;;
10643;SDS011;5370;50.132;8.626;2023-10-19T13:10:09;66.43;;;38.75;;
10643;SDS011;5370;50.132;8.626;2023-10-19T13:12:36;61.72;;;36.08;;
10643;SDS011;5370;50.132;8.626;2023-10-19T13:15:02;60.75;;;35.10;;
10643;SDS011;5370;50.132;8.626;2023-10-19T13:17:28;68.30;;;37.63;;
10643;SDS011;5370;50.132;8.626;2023-10-19T13:19:55;62.10;;;37.13;;
10643;SDS011;5370;50.132;8.626;2023-10-19T13:22:23;63.88;;;36.53;;
10643;SDS011;5370;50.132;8.626;2023-10-19T13:24:49;66.97;;;36.33;;
10643;SDS011;5370;50.132;8.626;2023-10-19T13:27:15;67.57;;;36.20;;
10643;SDS011;5370;50.132;8.626;2023-10-19T13:29:41;68.63;;;38.10;;
10643;SDS011;5370;50.132;8.626;2023-10-19T13:32:06;68.22;;;35.55;;
10643;SDS011;5370;50.132;8.626;2023-10-19T13:34:32;63.13;;;37.13;;
10643;SDS011;5370;50.132;8.626;2023-10-19T13:36:58;62.97;;;35.00;;
10643;SDS011;5370;50.132;8.626;2023-10-19T13:39:23;60.97;;;35.75;;
10643;SDS011;5370;50.132;8.626;2023-10-19T13:41:53;61.10;;;35.03;;
10643;SDS011;5370;50.132;8.626;2023-10-19T13:44:18;76.22;;;44.33;;
10643;SDS011;5370;50.132;8.626;2023-10-19T13:46:46;59.42;;;35.63;;
10643;SDS011;5370;50.132;8.626;2023-10-19T13:49:11;71.43;;;38.78;;
10643;SDS011;5370;50.132;8.626;2023-10-19T13:51:38;310.85;;;227.23;;
10643;SDS011;5370;50.132;8.626;2023-10-19T13:54:04;331.25;;;231.10;;
10643;SDS011;5370;50.132;8.626;2023-10-19T13:56:30;271.17;;;184.63;;
10643;SDS011;5370;50.132;8.626;2023-10-19T13:58:55;138.73;;;87.88;;
10643;SDS011;5370;50.132;8.626;2023-10-19T14:01:21;95.07;;;59.05;;
10643;SDS011;5370;50.132;8.626;2023-10-19T14:03:53;137.63;;;84.38;;
10643;SDS011;5370;50.132;8.626;2023-10-19T14:06:20;110.95;;;69.78;;
10643;SDS011;5370;50.132;8.626;2023-10-19T14:08:45;121.45;;;73.72;;
10643;SDS011;5370;50.132;8.626;2023-10-19T14:11:12;110.13;;;65.18;;
10643;SDS011;5370;50.132;8.626;2023-10-19T14:13:38;71.07;;;44.13;;
10643;SDS011;5370;50.132;8.626;2023-10-19T14:16:07;87.50;;;55.60;;
10643;SDS011;5370;50.132;8.626;2023-10-19T14:18:33;64.35;;;37.80;;
10643;SDS011;5370;50.132;8.626;2023-10-19T14:20:59;64.72;;;40.60;;
10643;SDS011;5370;50.132;8.626;2023-10-19T14:23:25;71.82;;;44.72;;
10643;SDS011;5370;50.132;8.626;2023-10-19T14:25:52;56.40;;;36.30;;
10643;SDS011;5370;50.132;8.626;2023-10-19T14:28:18;56.28;;;32.90;;
10643;SDS011;5370;50.132;8.626;2023-10-19T14:30:43;61.95;;;33.33;;
10643;SDS011;5370;50.132;8.626;2023-10-19T14:33:10;58.45;;;36.00;;
10643;SDS011;5370;50.132;8.626;2023-10-19T14:35:36;62.42;;;34.05;;
10643;SDS011;5370;50.132;8.626;2023-10-19T14:38:04;53.15;;;34.30;;
10643;SDS011;5370;50.132;8.626;2023-10-19T14:40:31;62.90;;;34.30;;
10643;SDS011;5370;50.132;8.626;2023-10-19T14:42:57;61.75;;;35.42;;
10643;SDS011;5370;50.132;8.626;2023-10-19T14:45:26;57.55;;;34.78;;
10643;SDS011;5370;50.132;8.626;2023-10-19T14:47:55;55.97;;;34.58;;
10643;SDS011;5370;50.132;8.626;2023-10-19T14:50:28;66.60;;;35.58;;
10643;SDS011;5370;50.132;8.626;2023-10-19T14:52:54;61.88;;;35.42;;